フィレンツェ の空港の天気 - METARとTAF

フィレンツェ・ペレトラ空港 ( LIRQ / FLR ) - イタリア フィレンツェ
飛行場実況気象(Metar)
観測時間07/28 14:20 CEST (07/28 12:20 UTC)
風向・風速不定 2m/s 瞬間風速10m/s
視程10km以上
天気現象
全天の4割程度の雲 雲底高度 1830m
気温31℃
湿度40%
気圧1013hPa
METARLIRQ 281220Z VRB04G19KT 9999 SCT060 31/16 Q1013
過去の天気等 Google飛行場航空写真 Wunderground天気予報

過去48時間のMETAR

飛行場予報(TAF)
発表時間: 7/28 13:00 CEST (7/28 11:00 UTC)
予報対象時間: 28日14時 CEST ~ 29日14時 CEST
風向・風速西南西 5m/s
視程10km以上
全天の4割程度の雲 雲底高度 1,220m
28日20時 CEST ~ 28日22時 CEST に徐々に
風向・風速不定 3m/s
TAF LIRQ 281100Z 2812/2912 24010KT 9999 SCT040
BECMG 2818/2820 VRB05KT